createdAt,value
2023-05-11T00:00:55.252Z,65.13
2023-05-11T00:03:23.675Z,62.93
2023-05-11T00:05:52.413Z,65.53
2023-05-11T00:08:20.355Z,58.50
2023-05-11T00:10:49.839Z,58.27
2023-05-11T00:13:18.002Z,54.83
2023-05-11T00:15:46.316Z,54.60
2023-05-11T00:18:14.262Z,69.50
2023-05-11T00:20:41.883Z,70.00
2023-05-11T00:23:10.042Z,74.93
2023-05-11T00:25:39.273Z,60.37
2023-05-11T00:28:08.516Z,74.30
2023-05-11T00:30:36.359Z,68.53
2023-05-11T00:33:04.522Z,57.17
2023-05-11T00:35:32.875Z,59.03
2023-05-11T00:38:00.890Z,62.03
2023-05-11T00:40:28.641Z,60.13
2023-05-11T00:42:56.430Z,55.57
2023-05-11T00:45:25.903Z,60.40
2023-05-11T00:47:53.730Z,57.30
2023-05-11T00:50:22.183Z,61.27
2023-05-11T00:52:50.022Z,55.90
2023-05-11T00:55:20.192Z,54.83
2023-05-11T00:57:48.497Z,52.43
2023-05-11T01:00:16.992Z,53.50
2023-05-11T01:02:47.241Z,56.83
2023-05-11T01:05:15.378Z,53.77
2023-05-11T01:07:47.576Z,58.13
2023-05-11T01:10:18.693Z,52.80
2023-05-11T01:12:49.024Z,55.23
2023-05-11T01:15:19.824Z,51.90
2023-05-11T01:17:52.545Z,56.13
2023-05-11T01:20:23.732Z,51.83
2023-05-11T01:23:03.831Z,55.10
2023-05-11T01:25:41.598Z,59.17
2023-05-11T01:28:21.403Z,53.73
2023-05-11T01:30:52.310Z,54.93
2023-05-11T01:33:23.000Z,57.37
2023-05-11T01:35:53.607Z,55.27
2023-05-11T01:38:22.747Z,55.63
2023-05-11T01:40:55.536Z,61.03
2023-05-11T01:43:24.847Z,54.33
2023-05-11T01:45:55.526Z,59.33
2023-05-11T01:48:24.646Z,52.93
2023-05-11T01:50:53.456Z,57.13
2023-05-11T01:53:23.127Z,53.17
2023-05-11T01:55:52.169Z,58.00
2023-05-11T01:58:20.162Z,56.93
2023-05-11T02:00:49.852Z,55.60
2023-05-11T02:03:20.301Z,53.87
2023-05-11T02:05:49.426Z,52.60
2023-05-11T02:08:17.876Z,58.97
2023-05-11T02:10:46.364Z,57.47
2023-05-11T02:13:15.148Z,54.00
2023-05-11T02:15:44.116Z,56.40
2023-05-11T02:18:15.118Z,57.20
2023-05-11T02:20:47.444Z,57.77
2023-05-11T02:23:15.769Z,55.13
2023-05-11T02:25:44.392Z,55.70
2023-05-11T02:28:12.594Z,57.23
2023-05-11T02:30:46.068Z,57.37
2023-05-11T02:33:18.018Z,68.03
2023-05-11T02:35:47.949Z,54.17
2023-05-11T02:38:16.422Z,57.20
2023-05-11T02:40:47.389Z,62.83
2023-05-11T02:43:19.917Z,59.20
2023-05-11T02:45:55.461Z,57.87
2023-05-11T02:48:26.202Z,57.97
2023-05-11T02:50:57.496Z,54.30
2023-05-11T02:53:28.571Z,56.20
2023-05-11T02:55:57.482Z,54.10
2023-05-11T02:58:26.326Z,58.67
2023-05-11T03:01:03.765Z,55.30
2023-05-11T03:03:32.655Z,56.93
2023-05-11T03:06:01.924Z,54.10
2023-05-11T03:08:29.962Z,57.07
2023-05-11T03:10:59.075Z,55.23
2023-05-11T03:13:27.171Z,55.30
2023-05-11T03:15:56.399Z,57.33
2023-05-11T03:18:25.039Z,59.60
2023-05-11T03:20:53.142Z,54.00
2023-05-11T03:23:23.466Z,51.70
2023-05-11T03:25:51.614Z,53.83
2023-05-11T03:28:21.016Z,51.20
2023-05-11T03:30:57.895Z,53.27
2023-05-11T03:33:25.606Z,52.80
2023-05-11T03:35:54.445Z,50.30
2023-05-11T03:38:29.004Z,50.63
2023-05-11T03:40:58.910Z,49.97
2023-05-11T03:43:28.386Z,50.90
2023-05-11T03:45:57.887Z,53.40
2023-05-11T03:48:27.529Z,55.50
2023-05-11T03:50:56.056Z,53.30
2023-05-11T03:53:24.544Z,51.63
2023-05-11T03:55:54.725Z,51.73
2023-05-11T03:58:23.160Z,60.00
2023-05-11T04:00:51.204Z,52.27
2023-05-11T04:03:19.623Z,50.87
2023-05-11T04:05:47.645Z,49.97
2023-05-11T04:08:15.670Z,49.67
2023-05-11T04:10:43.498Z,52.23
2023-05-11T04:13:12.835Z,54.33
2023-05-11T04:15:40.633Z,53.57
2023-05-11T04:18:08.569Z,51.33
2023-05-11T04:20:36.591Z,50.57
2023-05-11T04:23:04.255Z,53.50
2023-05-11T04:25:33.839Z,52.43
2023-05-11T04:28:01.590Z,50.10
2023-05-11T04:30:31.063Z,50.67
2023-05-11T04:32:58.971Z,50.73
2023-05-11T04:35:27.468Z,48.90
2023-05-11T04:37:55.446Z,48.53
2023-05-11T04:40:23.484Z,49.33
2023-05-11T04:42:51.974Z,51.47
2023-05-11T04:45:21.132Z,44.87
2023-05-11T04:47:50.488Z,47.17
2023-05-11T04:50:19.233Z,54.23
2023-05-11T04:52:48.804Z,49.70
2023-05-11T04:55:17.322Z,46.53
2023-05-11T04:57:47.071Z,49.37
2023-05-11T05:00:15.427Z,48.30
2023-05-11T05:02:43.349Z,50.07
2023-05-11T05:05:14.596Z,45.27
2023-05-11T05:07:43.648Z,48.23
2023-05-11T05:10:12.820Z,50.40
2023-05-11T05:12:40.764Z,43.50
2023-05-11T05:15:09.422Z,44.43
2023-05-11T05:17:37.228Z,46.20
2023-05-11T05:20:06.554Z,45.07
2023-05-11T05:22:35.772Z,43.77
2023-05-11T05:25:03.762Z,42.70
2023-05-11T05:27:34.900Z,47.30
2023-05-11T05:30:06.671Z,43.50
2023-05-11T05:32:34.910Z,41.37
2023-05-11T05:35:03.182Z,48.57
2023-05-11T05:37:30.890Z,43.27
2023-05-11T05:40:00.971Z,40.83
2023-05-11T05:42:28.879Z,47.57
2023-05-11T05:44:56.633Z,41.50
2023-05-11T05:47:24.979Z,40.07
2023-05-11T05:49:52.728Z,41.43
2023-05-11T05:52:20.447Z,38.90
2023-05-11T05:54:49.485Z,41.70
2023-05-11T05:57:19.031Z,37.50
2023-05-11T05:59:47.108Z,46.30
2023-05-11T06:02:19.087Z,37.30
2023-05-11T06:04:47.206Z,39.33
2023-05-11T06:07:15.508Z,38.10
2023-05-11T06:09:43.809Z,36.87
2023-05-11T06:12:11.478Z,33.40
2023-05-11T06:14:46.111Z,43.20
2023-05-11T06:17:14.004Z,32.97
2023-05-11T06:19:41.658Z,31.60
2023-05-11T06:22:10.480Z,34.57
2023-05-11T06:24:39.012Z,30.97
2023-05-11T06:27:07.067Z,29.80
2023-05-11T06:29:36.152Z,29.60
2023-05-11T06:32:07.337Z,32.83
2023-05-11T06:34:35.628Z,28.20
2023-05-11T06:37:03.691Z,28.10
2023-05-11T06:39:31.686Z,25.60
2023-05-11T06:42:03.589Z,27.90
2023-05-11T06:44:34.194Z,30.33
2023-05-11T06:47:01.940Z,30.93
2023-05-11T06:49:31.487Z,28.40
2023-05-11T06:51:59.389Z,27.30
2023-05-11T06:54:27.729Z,27.37
2023-05-11T06:56:55.712Z,25.97
2023-05-11T06:59:23.721Z,26.83
2023-05-11T07:01:51.814Z,25.53
2023-05-11T07:04:19.637Z,28.27
2023-05-11T07:06:48.691Z,30.10
2023-05-11T07:09:17.950Z,25.67
2023-05-11T07:11:45.655Z,27.60
2023-05-11T07:14:13.634Z,23.53
2023-05-11T07:16:41.673Z,27.73
2023-05-11T07:19:09.737Z,29.13
2023-05-11T07:21:37.896Z,23.97
2023-05-11T07:24:07.433Z,25.40
2023-05-11T07:26:35.086Z,24.80
2023-05-11T07:29:03.388Z,23.90
2023-05-11T07:31:32.142Z,25.37
2023-05-11T07:33:59.905Z,23.83
2023-05-11T07:36:27.958Z,23.87
2023-05-11T07:38:57.927Z,23.50
2023-05-11T07:41:27.280Z,23.80
2023-05-11T07:43:55.032Z,22.77
2023-05-11T07:46:23.187Z,26.47
2023-05-11T07:48:57.460Z,28.43
2023-05-11T07:51:32.326Z,21.57
2023-05-11T07:54:00.035Z,30.57
2023-05-11T07:56:29.147Z,22.53
2023-05-11T07:58:57.430Z,25.20
2023-05-11T08:01:25.069Z,28.97
2023-05-11T08:03:52.729Z,24.37
2023-05-11T08:06:20.804Z,23.37
2023-05-11T08:08:48.531Z,24.23
2023-05-11T08:11:16.713Z,22.63
2023-05-11T08:13:45.828Z,24.60
2023-05-11T08:16:13.590Z,32.13
2023-05-11T08:18:41.265Z,24.57
2023-05-11T08:21:09.402Z,23.17
2023-05-11T08:23:37.124Z,21.43
2023-05-11T08:26:05.270Z,32.20
2023-05-11T08:28:33.539Z,22.83
2023-05-11T08:31:03.195Z,22.37
2023-05-11T08:33:38.286Z,26.93
2023-05-11T08:36:07.583Z,20.87
2023-05-11T08:38:35.754Z,23.50
2023-05-11T08:41:04.805Z,23.77
2023-05-11T08:43:33.553Z,27.63
2023-05-11T08:46:04.333Z,23.90
2023-05-11T08:48:32.858Z,28.53
2023-05-11T08:51:00.616Z,22.10
2023-05-11T08:53:29.305Z,24.60
2023-05-11T08:55:59.054Z,21.10
2023-05-11T08:58:28.069Z,39.80
2023-05-11T09:00:56.294Z,21.83
2023-05-11T09:03:25.730Z,23.80
2023-05-11T09:05:54.928Z,24.20
2023-05-11T09:08:23.856Z,20.47
2023-05-11T09:10:52.928Z,21.80
2023-05-11T09:13:21.352Z,20.60
2023-05-11T09:15:49.275Z,32.53
2023-05-11T09:18:17.134Z,23.50
2023-05-11T09:20:47.399Z,23.40
2023-05-11T09:23:17.505Z,20.40
2023-05-11T09:25:45.692Z,20.40
2023-05-11T09:28:24.909Z,26.07
2023-05-11T09:30:53.254Z,23.23
2023-05-11T09:33:24.845Z,22.03
2023-05-11T09:35:54.245Z,27.70
2023-05-11T09:38:23.171Z,22.70
2023-05-11T09:40:52.464Z,25.33
2023-05-11T09:43:20.730Z,24.03
2023-05-11T09:45:49.778Z,22.70
2023-05-11T09:48:30.603Z,23.27
2023-05-11T09:51:29.605Z,20.20
2023-05-11T09:53:57.708Z,22.10
2023-05-11T09:56:26.299Z,22.47
2023-05-11T09:58:55.268Z,26.70
2023-05-11T10:01:30.329Z,24.20
2023-05-11T10:04:09.028Z,23.90
2023-05-11T10:06:46.934Z,19.50
2023-05-11T10:09:16.081Z,21.07
2023-05-11T10:11:47.864Z,26.60
2023-05-11T10:14:16.401Z,19.67
2023-05-11T10:16:45.764Z,28.30
2023-05-11T10:19:14.873Z,23.20
2023-05-11T10:21:42.844Z,21.80
2023-05-11T10:24:13.749Z,21.00
2023-05-11T10:26:42.385Z,21.17
2023-05-11T10:29:10.856Z,22.33
2023-05-11T10:31:39.884Z,21.77
2023-05-11T10:34:08.093Z,20.83
2023-05-11T10:36:35.928Z,29.13
2023-05-11T10:39:03.788Z,21.17
2023-05-11T10:41:40.832Z,21.20
2023-05-11T10:44:30.137Z,21.40
2023-05-11T10:47:07.377Z,19.80
2023-05-11T10:49:45.784Z,20.70
2023-05-11T10:52:23.523Z,19.50
2023-05-11T10:55:02.802Z,20.30
2023-05-11T10:57:49.192Z,18.20
2023-05-11T11:00:43.457Z,20.13
2023-05-11T11:03:12.362Z,19.13
2023-05-11T11:05:40.244Z,21.37
2023-05-11T11:08:09.254Z,21.73
2023-05-11T11:10:38.319Z,21.10
2023-05-11T11:13:06.990Z,21.50
2023-05-11T11:15:53.595Z,28.93
2023-05-11T11:18:24.023Z,23.23
2023-05-11T11:20:52.890Z,20.17
2023-05-11T11:23:38.543Z,26.90
2023-05-11T11:26:06.672Z,21.20
2023-05-11T11:28:49.574Z,25.00
2023-05-11T11:31:23.934Z,27.30
2023-05-11T11:36:58.959Z,21.00
2023-05-11T11:39:26.954Z,22.90
2023-05-11T11:42:01.113Z,20.17
2023-05-11T11:44:30.878Z,20.47
2023-05-11T11:47:12.165Z,20.70
2023-05-11T11:49:42.008Z,19.50
2023-05-11T11:52:13.348Z,23.37
2023-05-11T11:54:42.049Z,19.80
2023-05-11T11:57:28.403Z,20.80
2023-05-11T11:59:56.684Z,23.83
2023-05-11T12:02:24.659Z,25.80
2023-05-11T12:04:58.013Z,21.50
2023-05-11T12:07:26.739Z,22.60
2023-05-11T12:09:54.520Z,24.00
2023-05-11T12:12:22.543Z,20.17
2023-05-11T12:14:50.345Z,20.03
2023-05-11T12:17:28.497Z,18.60
2023-05-11T12:20:12.022Z,17.70
2023-05-11T12:22:40.507Z,20.70
2023-05-11T12:25:08.825Z,25.50
2023-05-11T12:27:36.820Z,25.20
2023-05-11T12:30:04.981Z,28.10
2023-05-11T12:32:32.992Z,26.90
2023-05-11T12:35:04.424Z,26.60
2023-05-11T12:37:33.106Z,25.17
2023-05-11T12:40:01.239Z,26.83
2023-05-11T12:42:29.350Z,26.13
2023-05-11T12:44:57.304Z,27.87
2023-05-11T12:47:25.373Z,26.87
2023-05-11T12:49:53.572Z,27.77
2023-05-11T12:52:24.261Z,29.73
2023-05-11T12:54:52.450Z,26.50
2023-05-11T12:57:24.830Z,29.57
2023-05-11T13:00:07.088Z,27.37
2023-05-11T13:02:35.102Z,25.90
2023-05-11T13:05:11.396Z,31.80
2023-05-11T13:07:40.614Z,26.00
2023-05-11T13:10:08.977Z,28.10
2023-05-11T13:12:37.402Z,28.70
2023-05-11T13:15:06.601Z,31.83
2023-05-11T13:17:35.536Z,28.57
2023-05-11T13:20:30.646Z,28.27
2023-05-11T13:23:07.221Z,27.10
2023-05-11T13:25:35.845Z,27.70
2023-05-11T13:28:03.863Z,27.27
2023-05-11T13:30:34.706Z,27.90
2023-05-11T13:33:03.187Z,27.10
2023-05-11T13:35:31.339Z,25.20
2023-05-11T13:37:59.503Z,26.00
2023-05-11T13:40:29.148Z,27.67
2023-05-11T13:42:57.080Z,25.90
2023-05-11T13:45:24.937Z,25.47
2023-05-11T13:47:53.025Z,30.97
2023-05-11T13:50:20.731Z,27.43
2023-05-11T13:52:48.631Z,27.70
2023-05-11T13:55:16.717Z,26.27
2023-05-11T13:57:46.003Z,28.80
2023-05-11T14:00:14.983Z,31.23
2023-05-11T14:02:44.873Z,30.60
2023-05-11T14:05:13.043Z,29.30
2023-05-11T14:07:46.912Z,29.00
2023-05-11T14:10:16.421Z,26.10
2023-05-11T14:12:44.128Z,25.57
2023-05-11T14:15:13.649Z,28.67
2023-05-11T14:17:43.427Z,28.10
2023-05-11T14:20:12.218Z,29.87
2023-05-11T14:22:40.595Z,27.07
2023-05-11T14:25:09.103Z,26.93
2023-05-11T14:27:36.864Z,29.50
2023-05-11T14:30:04.859Z,28.33
2023-05-11T14:32:34.264Z,28.97
2023-05-11T14:35:02.599Z,26.50
2023-05-11T14:37:30.614Z,27.17
2023-05-11T14:39:59.093Z,32.00
2023-05-11T14:42:26.821Z,28.87
2023-05-11T14:44:54.894Z,27.07
2023-05-11T14:47:22.592Z,27.50
2023-05-11T14:49:52.011Z,27.00
2023-05-11T14:52:20.011Z,26.87
2023-05-11T14:54:47.989Z,29.73
2023-05-11T14:57:15.898Z,28.43
2023-05-11T14:59:55.343Z,27.13
2023-05-11T15:02:27.312Z,26.80
2023-05-11T15:04:56.760Z,26.13
2023-05-11T15:07:24.862Z,26.73
2023-05-11T15:09:52.856Z,25.70
2023-05-11T15:12:20.706Z,25.67
2023-05-11T15:14:48.507Z,25.87
2023-05-11T15:17:16.748Z,29.57
2023-05-11T15:19:44.603Z,26.77
2023-05-11T15:22:14.147Z,26.90
2023-05-11T15:24:42.450Z,28.20
2023-05-11T15:27:10.447Z,29.20
2023-05-11T15:29:38.634Z,30.03
2023-05-11T15:32:07.003Z,28.50
2023-05-11T15:34:44.394Z,29.43
2023-05-11T15:37:23.105Z,26.13
2023-05-11T15:39:51.024Z,30.10
2023-05-11T15:42:18.713Z,29.60
2023-05-11T15:44:47.346Z,27.53
2023-05-11T15:47:15.074Z,29.00
2023-05-11T15:49:43.218Z,28.20
2023-05-11T15:52:11.583Z,27.27
2023-05-11T15:54:40.871Z,27.93
2023-05-11T15:57:08.793Z,27.23
2023-05-11T15:59:38.100Z,26.87
2023-05-11T16:02:06.358Z,27.97
2023-05-11T16:04:34.362Z,27.70
2023-05-11T16:07:02.513Z,25.83
2023-05-11T16:09:30.424Z,25.80
2023-05-11T16:12:00.183Z,30.20
2023-05-11T16:14:27.920Z,28.73
2023-05-11T16:16:56.402Z,30.37
2023-05-11T16:19:24.383Z,30.53
2023-05-11T16:21:52.694Z,28.87
2023-05-11T16:24:20.664Z,32.03
2023-05-11T16:26:48.896Z,26.80
2023-05-11T16:29:18.405Z,27.57
2023-05-11T16:31:46.272Z,27.77
2023-05-11T16:34:14.666Z,27.83
2023-05-11T16:36:43.477Z,28.80
2023-05-11T16:39:11.448Z,26.70
2023-05-11T16:41:39.976Z,28.80
2023-05-11T16:44:08.021Z,28.47
2023-05-11T16:46:37.371Z,28.97
2023-05-11T16:49:05.338Z,27.43
2023-05-11T16:51:34.063Z,30.17
2023-05-11T16:54:01.949Z,28.00
2023-05-11T16:56:30.072Z,28.90
2023-05-11T16:58:57.826Z,28.97
2023-05-11T17:01:26.089Z,26.10
2023-05-11T17:03:55.313Z,27.37
2023-05-11T17:06:24.736Z,28.43
2023-05-11T17:08:55.270Z,26.97
2023-05-11T17:11:23.662Z,29.03
2023-05-11T17:13:51.968Z,26.97
2023-05-11T17:16:19.849Z,29.03
2023-05-11T17:18:48.018Z,28.40
2023-05-11T17:21:17.660Z,30.67
2023-05-11T17:23:46.099Z,26.97
2023-05-11T17:26:14.012Z,28.90
2023-05-11T17:28:42.567Z,27.57
2023-05-11T17:31:11.522Z,29.47
2023-05-11T17:33:39.797Z,30.30
2023-05-11T17:36:08.009Z,29.73
2023-05-11T17:38:38.554Z,28.10
2023-05-11T17:41:06.747Z,28.23
2023-05-11T17:43:34.691Z,30.10
2023-05-11T17:46:04.069Z,29.20
2023-05-11T17:48:33.054Z,29.93
2023-05-11T17:51:01.416Z,33.13
2023-05-11T17:53:29.667Z,28.93
2023-05-11T17:56:00.304Z,30.20
2023-05-11T17:58:28.173Z,28.97
2023-05-11T18:00:55.974Z,29.30
2023-05-11T18:03:24.242Z,29.90
2023-05-11T18:05:52.571Z,31.80
2023-05-11T18:08:20.429Z,31.47
2023-05-11T18:10:48.525Z,30.60
2023-05-11T18:13:18.022Z,35.40
2023-05-11T18:15:46.105Z,31.30
2023-05-11T18:18:14.500Z,29.50
2023-05-11T18:20:47.057Z,33.30
2023-05-11T18:23:15.004Z,31.83
2023-05-11T18:25:43.959Z,30.20
2023-05-11T18:28:12.044Z,29.70
2023-05-11T18:30:41.119Z,31.90
2023-05-11T18:33:08.949Z,33.27
2023-05-11T18:35:39.726Z,35.73
2023-05-11T18:38:07.758Z,34.63
2023-05-11T18:40:35.666Z,31.27
2023-05-11T18:43:04.016Z,36.97
2023-05-11T18:45:33.026Z,37.10
2023-05-11T18:48:02.430Z,50.60
2023-05-11T18:50:30.886Z,32.17
2023-05-11T18:52:58.653Z,43.77
2023-05-11T18:55:29.095Z,41.53
2023-05-11T18:58:00.461Z,33.07
2023-05-11T19:00:28.796Z,39.73
2023-05-11T19:02:56.621Z,32.87
2023-05-11T19:05:27.039Z,35.40
2023-05-11T19:07:54.850Z,32.57
2023-05-11T19:10:24.416Z,29.63
2023-05-11T19:12:53.258Z,37.00
2023-05-11T19:15:20.918Z,40.20
2023-05-11T19:17:49.004Z,33.63
2023-05-11T19:20:17.140Z,32.70
2023-05-11T19:22:46.944Z,39.60
2023-05-11T19:25:14.889Z,57.53
2023-05-11T19:27:42.954Z,50.03
2023-05-11T19:30:10.937Z,36.43
2023-05-11T19:32:39.112Z,36.23
2023-05-11T19:35:11.089Z,38.47
2023-05-11T19:38:03.120Z,43.13
2023-05-11T19:43:03.894Z,42.23
2023-05-11T19:45:33.129Z,37.30
2023-05-11T19:48:03.195Z,35.17
2023-05-11T19:50:30.920Z,33.67
2023-05-11T19:52:58.604Z,36.80
2023-05-11T19:55:27.932Z,33.63
2023-05-11T19:57:55.894Z,35.97
2023-05-11T20:00:25.213Z,37.33
2023-05-11T20:02:53.765Z,51.87
2023-05-11T20:05:21.680Z,36.00
2023-05-11T20:07:51.100Z,35.00
2023-05-11T20:10:19.104Z,36.63
2023-05-11T20:12:48.425Z,35.17
2023-05-11T20:15:17.941Z,38.40
2023-05-11T20:17:45.792Z,34.20
2023-05-11T20:20:13.701Z,38.40
2023-05-11T20:22:41.388Z,33.73
2023-05-11T20:25:17.556Z,32.27
2023-05-11T20:27:46.127Z,36.80
2023-05-11T20:30:15.712Z,32.13
2023-05-11T20:34:06.718Z,35.50
2023-05-11T20:35:32.795Z,47.97
2023-05-11T20:38:01.215Z,31.93
2023-05-11T20:40:28.907Z,37.50
2023-05-11T20:42:57.388Z,39.63
2023-05-11T20:45:26.776Z,36.80
2023-05-11T20:47:55.106Z,37.97
2023-05-11T20:50:23.384Z,34.10
2023-05-11T20:52:51.206Z,44.17
2023-05-11T20:55:19.460Z,34.10
2023-05-11T20:57:47.468Z,34.57
2023-05-11T21:00:16.169Z,32.83
2023-05-11T21:02:46.832Z,39.40
2023-05-11T21:05:14.713Z,32.83
2023-05-11T21:07:42.786Z,32.47
2023-05-11T21:10:12.213Z,34.77
2023-05-11T21:12:40.337Z,33.13
2023-05-11T21:15:08.762Z,42.47
2023-05-11T21:17:37.116Z,40.43
2023-05-11T21:20:06.829Z,36.33
2023-05-11T21:22:35.124Z,35.30
2023-05-11T21:25:03.467Z,35.93
2023-05-11T21:27:31.668Z,35.90
2023-05-11T21:29:59.720Z,37.70
2023-05-11T21:32:27.906Z,39.20
2023-05-11T21:34:55.618Z,40.43
2023-05-11T21:37:24.654Z,40.33
2023-05-11T21:39:53.231Z,39.57
2023-05-11T21:42:21.741Z,34.83
2023-05-11T21:44:49.487Z,32.73
2023-05-11T21:47:17.497Z,34.03
2023-05-11T21:49:45.175Z,34.23
2023-05-11T21:52:13.129Z,37.53
2023-05-11T21:54:42.596Z,33.83
2023-05-11T21:57:10.355Z,33.60
2023-05-11T21:59:38.405Z,33.67
2023-05-11T22:02:07.055Z,35.23
2023-05-11T22:04:35.370Z,39.30
2023-05-11T22:07:03.431Z,40.60
2023-05-11T22:09:31.548Z,35.73
2023-05-11T22:12:01.201Z,34.23
2023-05-11T22:14:29.029Z,37.43
2023-05-11T22:16:56.746Z,42.10
2023-05-11T22:19:24.827Z,39.70
2023-05-11T22:21:53.358Z,32.13
2023-05-11T22:24:23.029Z,33.80
2023-05-11T22:26:51.130Z,39.60
2023-05-11T22:29:20.220Z,41.67
2023-05-11T22:31:48.980Z,35.23
2023-05-11T22:34:17.405Z,33.83
2023-05-11T22:36:45.665Z,36.63
2023-05-11T22:39:13.851Z,34.83
2023-05-11T22:41:42.047Z,37.97
2023-05-11T22:44:09.917Z,35.53
2023-05-11T22:46:39.641Z,33.10
2023-05-11T22:49:08.327Z,39.00
2023-05-11T22:51:36.188Z,40.90
2023-05-11T22:54:04.478Z,36.13
2023-05-11T22:56:32.431Z,36.50
2023-05-11T22:59:00.325Z,36.07
2023-05-11T23:01:28.212Z,34.73
2023-05-11T23:03:57.747Z,42.23
2023-05-11T23:06:25.506Z,41.67
2023-05-11T23:08:53.404Z,38.83
2023-05-11T23:11:21.478Z,36.53
2023-05-11T23:13:49.268Z,36.87
2023-05-11T23:16:17.694Z,38.90
2023-05-11T23:18:46.237Z,34.13
2023-05-11T23:21:15.507Z,34.37
2023-05-11T23:23:43.657Z,36.23
2023-05-11T23:26:12.045Z,40.13
2023-05-11T23:28:39.890Z,36.00
2023-05-11T23:31:07.904Z,34.10
2023-05-11T23:33:35.841Z,40.43
2023-05-11T23:36:03.743Z,35.20
2023-05-11T23:38:32.812Z,35.47
2023-05-11T23:41:01.345Z,36.93
2023-05-11T23:43:30.300Z,39.10
2023-05-11T23:45:58.477Z,37.00
2023-05-11T23:48:26.361Z,54.27
2023-05-11T23:50:54.005Z,33.90
2023-05-11T23:53:21.699Z,35.50
2023-05-11T23:55:51.360Z,36.90
2023-05-11T23:58:19.281Z,39.37
